Blue Star 1 — SWET — position and weather

sailwx.info

Track history (hours):
 
Tides and Currents Weather Stations Pressure Air Temp Water Temp Dewpoint Dewpoint Depression Visibility Wind Speed Wind Dir Waves Ship Positions

Blue Star 1

Last reported at 2016-May-03 02:33 UTC. Time now 2016-May-03 02:57 UTC.
Position N 37°39' E 024°10'.

Length 177 m; draft 6.5 m.

Type: Passenger vessel. MMSI: 239710000.

Date/timePositionNaut miles runAvg speedWind from/ knotsBaromVisibWave heightAir tempDewpointWater temp
2016-May-03 02:33N 37°39' E 024°10'2525.3
2016-May-03 01:34N 37°55' E 024°34'2824.9
2016-May-03 00:27N 38°13' E 025°01'  
2016-Apr-28 21:18N 38°08' E 024°55'1622.2
2016-Apr-28 20:34N 37°58' E 024°38'2222.3
2016-Apr-28 19:34N 37°44' E 024°16'1919.1
2016-Apr-28 18:33N 37°38' E 023°53'1817.8
2016-Apr-28 17:33N 37°50' E 023°37'6 6.3
2016-Apr-28 16:33N 37°56' E 023°38'0 0.0
2016-Apr-28 15:33N 37°56' E 023°38'0 0.0
2016-Apr-28 14:33N 37°56' E 023°38'0 0.0
2016-Apr-28 13:34N 37°56' E 023°38'0 0.0
2016-Apr-28 12:33N 37°56' E 023°38'0 0.0
2016-Apr-28 11:33N 37°56' E 023°38'0 0.0
2016-Apr-28 10:33N 37°56' E 023°38'0 0.0
2016-Apr-28 09:33N 37°56' E 023°38'0 0.0
2016-Apr-28 08:34N 37°56' E 023°38'0 0.0
2016-Apr-28 07:33N 37°56' E 023°38'0 0.0
2016-Apr-28 06:34N 37°56' E 023°38'0 0.0
2016-Apr-28 05:34N 37°56' E 023°38'0 0.0
2016-Apr-28 04:33N 37°56' E 023°38'0 0.0
2016-Apr-28 03:33N 37°56' E 023°38'1717.1
2016-Apr-28 02:33N 37°41' E 023°46'2020.4
2016-Apr-28 01:33N 37°40' E 024°11'2322.6
2016-Apr-28 00:33N 37°54' E 024°34'2121.2
2016-Apr-27 23:33N 38°02' E 024°59'44 1.8
2016-Apr-26 23:34N 37°27' E 025°31'2924.5
2016-Apr-26 22:24N 37°06' E 025°07'1 1.4
2016-Apr-26 21:30N 37°05' E 025°09'4823.0
2016-Apr-26 19:26N 37°21' E 024°13'2224.7
2016-Apr-26 18:33N 37°35' E 023°51'2323.4
2016-Apr-26 17:34N 37°55' E 023°37'1 1.4
2016-Apr-26 16:33N 37°56' E 023°38'0 0.0
2016-Apr-26 15:33N 37°56' E 023°38'0 0.0
2016-Apr-26 14:34N 37°56' E 023°38'0 0.0
2016-Apr-26 13:33N 37°56' E 023°38'0 0.0
2016-Apr-26 12:33N 37°56' E 023°38'0 0.0
2016-Apr-26 11:33N 37°56' E 023°38'0 0.0
2016-Apr-26 10:33N 37°56' E 023°38'0 0.0
2016-Apr-26 09:33N 37°56' E 023°38'0 0.0
2016-Apr-26 08:33N 37°56' E 023°38'0 0.0
2016-Apr-26 07:33N 37°56' E 023°38'0 0.0
2016-Apr-26 06:33N 37°56' E 023°38'0 0.0
2016-Apr-26 05:33N 37°56' E 023°38'0 0.0
2016-Apr-26 04:33N 37°56' E 023°38'1211.7
2016-Apr-26 03:34N 37°45' E 023°42'2121.2
2016-Apr-26 02:33N 37°38' E 024°07'2524.8
2016-Apr-26 01:34N 37°54' E 024°31'3124.6
2016-Apr-26 00:18N 38°13' E 025°02'13 0.5
2016-Apr-24 22:30N 38°01' E 025°00'1819.6
2016-Apr-24 21:34N 37°56' E 024°38'2221.6
2016-Apr-24 20:33N 37°43' E 024°16'1818.0
2016-Apr-24 19:34N 37°38' E 023°54'1717.5
2016-Apr-24 18:34N 37°49' E 023°38'7 7.1
2016-Apr-24 17:33N 37°56' E 023°38'0 0.0
2016-Apr-24 16:33N 37°56' E 023°38'0 0.0
2016-Apr-24 15:33N 37°56' E 023°38'1717.5
2016-Apr-24 14:33N 37°40' E 023°46'2422.4
2016-Apr-24 13:29N 37°43' E 024°16'11 0.4
2016-Apr-23 07:31N 37°37' E 024°04'2222.7
2016-Apr-23 06:34N 37°46' E 023°39'1010.4
2016-Apr-23 05:34N 37°56' E 023°38'0 0.0
2016-Apr-23 04:33N 37°56' E 023°38'0 0.0
2016-Apr-23 03:34N 37°56' E 023°38'10 9.8
2016-Apr-23 02:34N 37°47' E 023°42'  
Track history (hours):
 
Tides and Currents Weather Stations Pressure Air Temp Water Temp Dewpoint Dewpoint Depression Visibility Wind Speed Wind Dir Waves Ship Positions

Blue Star 1

Last reported at 2016-May-03 02:33 UTC. Time now 2016-May-03 02:57 UTC.
Position N 37°39' E 024°10'.

Length 177 m; draft 6.5 m.

Type: Passenger vessel. MMSI: 239710000.

Date/timePositionNaut miles runAvg speedWind from/ knotsBaromVisibWave heightAir tempDewpointWater temp
2016-May-03 02:33N 37°39' E 024°10'2525.3
2016-May-03 01:34N 37°55' E 024°34'2824.9
2016-May-03 00:27N 38°13' E 025°01'  
2016-Apr-28 21:18N 38°08' E 024°55'1622.2
2016-Apr-28 20:34N 37°58' E 024°38'2222.3
2016-Apr-28 19:34N 37°44' E 024°16'1919.1
2016-Apr-28 18:33N 37°38' E 023°53'1817.8
2016-Apr-28 17:33N 37°50' E 023°37'6 6.3
2016-Apr-28 16:33N 37°56' E 023°38'0 0.0
2016-Apr-28 15:33N 37°56' E 023°38'0 0.0
2016-Apr-28 14:33N 37°56' E 023°38'0 0.0
2016-Apr-28 13:34N 37°56' E 023°38'0 0.0
2016-Apr-28 12:33N 37°56' E 023°38'0 0.0
2016-Apr-28 11:33N 37°56' E 023°38'0 0.0
2016-Apr-28 10:33N 37°56' E 023°38'0 0.0
2016-Apr-28 09:33N 37°56' E 023°38'0 0.0
2016-Apr-28 08:34N 37°56' E 023°38'0 0.0
2016-Apr-28 07:33N 37°56' E 023°38'0 0.0
2016-Apr-28 06:34N 37°56' E 023°38'0 0.0
2016-Apr-28 05:34N 37°56' E 023°38'0 0.0
2016-Apr-28 04:33N 37°56' E 023°38'0 0.0
2016-Apr-28 03:33N 37°56' E 023°38'1717.1
2016-Apr-28 02:33N 37°41' E 023°46'2020.4
2016-Apr-28 01:33N 37°40' E 024°11'2322.6
2016-Apr-28 00:33N 37°54' E 024°34'2121.2
2016-Apr-27 23:33N 38°02' E 024°59'44 1.8
2016-Apr-26 23:34N 37°27' E 025°31'2924.5
2016-Apr-26 22:24N 37°06' E 025°07'1 1.4
2016-Apr-26 21:30N 37°05' E 025°09'4823.0
2016-Apr-26 19:26N 37°21' E 024°13'2224.7
2016-Apr-26 18:33N 37°35' E 023°51'2323.4
2016-Apr-26 17:34N 37°55' E 023°37'1 1.4
2016-Apr-26 16:33N 37°56' E 023°38'0 0.0
2016-Apr-26 15:33N 37°56' E 023°38'0 0.0
2016-Apr-26 14:34N 37°56' E 023°38'0 0.0
2016-Apr-26 13:33N 37°56' E 023°38'0 0.0
2016-Apr-26 12:33N 37°56' E 023°38'0 0.0
2016-Apr-26 11:33N 37°56' E 023°38'0 0.0
2016-Apr-26 10:33N 37°56' E 023°38'0 0.0
2016-Apr-26 09:33N 37°56' E 023°38'0 0.0
2016-Apr-26 08:33N 37°56' E 023°38'0 0.0
2016-Apr-26 07:33N 37°56' E 023°38'0 0.0
2016-Apr-26 06:33N 37°56' E 023°38'0 0.0
2016-Apr-26 05:33N 37°56' E 023°38'0 0.0
2016-Apr-26 04:33N 37°56' E 023°38'1211.7
2016-Apr-26 03:34N 37°45' E 023°42'2121.2
2016-Apr-26 02:33N 37°38' E 024°07'2524.8
2016-Apr-26 01:34N 37°54' E 024°31'3124.6
2016-Apr-26 00:18N 38°13' E 025°02'13 0.5
2016-Apr-24 22:30N 38°01' E 025°00'1819.6
2016-Apr-24 21:34N 37°56' E 024°38'2221.6
2016-Apr-24 20:33N 37°43' E 024°16'1818.0
2016-Apr-24 19:34N 37°38' E 023°54'1717.5
2016-Apr-24 18:34N 37°49' E 023°38'7 7.1
2016-Apr-24 17:33N 37°56' E 023°38'0 0.0
2016-Apr-24 16:33N 37°56' E 023°38'0 0.0
2016-Apr-24 15:33N 37°56' E 023°38'1717.5
2016-Apr-24 14:33N 37°40' E 023°46'2422.4
2016-Apr-24 13:29N 37°43' E 024°16'11 0.4
2016-Apr-23 07:31N 37°37' E 024°04'2222.7
2016-Apr-23 06:34N 37°46' E 023°39'1010.4
2016-Apr-23 05:34N 37°56' E 023°38'0 0.0
2016-Apr-23 04:33N 37°56' E 023°38'0 0.0
2016-Apr-23 03:34N 37°56' E 023°38'10 9.8
2016-Apr-23 02:34N 37°47' E 023°42'  

Dump ship's entire track history